sensor_id;sensor_type;location;lat;lon;timestamp;temperature;humidity
56123;DHT22;42426;46.104;19.656;2023-03-29T00:01:39;51.70;2227.20
56123;DHT22;42426;46.104;19.656;2023-03-29T00:04:07;51.70;2227.20
56123;DHT22;42426;46.104;19.656;2023-03-29T00:06:34;51.70;2227.20
56123;DHT22;42426;46.104;19.656;2023-03-29T00:09:09;51.60;2227.20
56123;DHT22;42426;46.104;19.656;2023-03-29T00:11:35;51.70;2227.20
56123;DHT22;42426;46.104;19.656;2023-03-29T00:14:03;51.60;2227.20
56123;DHT22;42426;46.104;19.656;2023-03-29T00:16:29;51.60;2227.20
56123;DHT22;42426;46.104;19.656;2023-03-29T00:18:55;51.70;2227.20
56123;DHT22;42426;46.104;19.656;2023-03-29T00:21:21;51.60;2227.20
56123;DHT22;42426;46.104;19.656;2023-03-29T00:23:47;51.70;2227.20
56123;DHT22;42426;46.104;19.656;2023-03-29T00:26:13;51.60;2227.20
56123;DHT22;42426;46.104;19.656;2023-03-29T00:29:01;51.50;2227.20
56123;DHT22;42426;46.104;19.656;2023-03-29T00:31:27;51.50;2227.20
56123;DHT22;42426;46.104;19.656;2023-03-29T00:33:53;51.60;2227.20
56123;DHT22;42426;46.104;19.656;2023-03-29T00:36:41;51.50;2227.20
56123;DHT22;42426;46.104;19.656;2023-03-29T00:39:09;51.50;2227.20
56123;DHT22;42426;46.104;19.656;2023-03-29T00:41:35;51.50;2227.20
56123;DHT22;42426;46.104;19.656;2023-03-29T00:44:03;51.50;2227.20
56123;DHT22;42426;46.104;19.656;2023-03-29T00:46:30;51.50;2227.20
56123;DHT22;42426;46.104;19.656;2023-03-29T00:49:00;51.60;2227.20
56123;DHT22;42426;46.104;19.656;2023-03-29T00:51:30;51.50;2227.20
56123;DHT22;42426;46.104;19.656;2023-03-29T00:53:59;51.50;2227.20
56123;DHT22;42426;46.104;19.656;2023-03-29T00:56:28;51.40;2227.20
56123;DHT22;42426;46.104;19.656;2023-03-29T00:59:25;51.50;2227.20
56123;DHT22;42426;46.104;19.656;2023-03-29T01:01:50;51.50;2227.20
56123;DHT22;42426;46.104;19.656;2023-03-29T01:07:09;51.50;2227.20
56123;DHT22;42426;46.104;19.656;2023-03-29T01:09:44;51.40;2227.20
56123;DHT22;42426;46.104;19.656;2023-03-29T01:12:14;51.40;2227.20
56123;DHT22;42426;46.104;19.656;2023-03-29T01:14:45;51.40;2227.20
56123;DHT22;42426;46.104;19.656;2023-03-29T01:17:14;51.40;2227.20
56123;DHT22;42426;46.104;19.656;2023-03-29T01:19:49;51.30;2227.20
56123;DHT22;42426;46.104;19.656;2023-03-29T01:30:13;51.60;2227.20
56123;DHT22;42426;46.104;19.656;2023-03-29T01:32:51;51.70;2227.20
56123;DHT22;42426;46.104;19.656;2023-03-29T01:38:23;51.70;2227.20
56123;DHT22;42426;46.104;19.656;2023-03-29T01:40:50;51.80;2227.20
56123;DHT22;42426;46.104;19.656;2023-03-29T01:43:32;51.90;2227.20
56123;DHT22;42426;46.104;19.656;2023-03-29T01:48:35;51.80;2227.20
56123;DHT22;42426;46.104;19.656;2023-03-29T01:51:11;51.80;2227.20
56123;DHT22;42426;46.104;19.656;2023-03-29T01:56:17;51.80;2227.20
56123;DHT22;42426;46.104;19.656;2023-03-29T01:58:50;51.80;2227.20
56123;DHT22;42426;46.104;19.656;2023-03-29T02:01:20;51.80;2227.20
56123;DHT22;42426;46.104;19.656;2023-03-29T02:03:59;51.90;2227.20
56123;DHT22;42426;46.104;19.656;2023-03-29T02:06:30;51.70;2227.20
56123;DHT22;42426;46.104;19.656;2023-03-29T02:08:57;51.70;2227.20
56123;DHT22;42426;46.104;19.656;2023-03-29T02:11:24;51.70;2227.20
56123;DHT22;42426;46.104;19.656;2023-03-29T02:13:52;51.80;2227.20
56123;DHT22;42426;46.104;19.656;2023-03-29T02:16:18;51.80;2227.20
56123;DHT22;42426;46.104;19.656;2023-03-29T02:18:46;51.80;2227.20
56123;DHT22;42426;46.104;19.656;2023-03-29T02:21:34;51.80;2227.20
56123;DHT22;42426;46.104;19.656;2023-03-29T02:24:03;51.80;2227.20
56123;DHT22;42426;46.104;19.656;2023-03-29T02:26:31;51.80;2227.20
56123;DHT22;42426;46.104;19.656;2023-03-29T02:28:56;51.80;2227.20
56123;DHT22;42426;46.104;19.656;2023-03-29T02:34:10;51.70;2227.20
56123;DHT22;42426;46.104;19.656;2023-03-29T02:36:48;51.50;2227.20
56123;DHT22;42426;46.104;19.656;2023-03-29T02:39:17;51.50;2227.20
56123;DHT22;42426;46.104;19.656;2023-03-29T02:41:48;51.50;2227.20
56123;DHT22;42426;46.104;19.656;2023-03-29T02:44:20;51.30;2227.20
56123;DHT22;42426;46.104;19.656;2023-03-29T02:46:50;51.20;2227.20
56123;DHT22;42426;46.104;19.656;2023-03-29T02:49:17;26.50;2201.60
56123;DHT22;42426;46.104;19.656;2023-03-29T02:51:44;26.40;2201.60
56123;DHT22;42426;46.104;19.656;2023-03-29T02:54:14;26.50;2201.60
56123;DHT22;42426;46.104;19.656;2023-03-29T02:56:44;51.20;2227.20
56123;DHT22;42426;46.104;19.656;2023-03-29T02:59:11;51.20;2227.20
56123;DHT22;42426;46.104;19.656;2023-03-29T03:01:38;51.20;2227.20
56123;DHT22;42426;46.104;19.656;2023-03-29T03:04:04;51.40;2227.20
56123;DHT22;42426;46.104;19.656;2023-03-29T03:06:30;51.40;2227.20
56123;DHT22;42426;46.104;19.656;2023-03-29T03:08:55;51.40;2227.20
56123;DHT22;42426;46.104;19.656;2023-03-29T03:11:23;51.40;2227.20
56123;DHT22;42426;46.104;19.656;2023-03-29T03:13:48;51.40;2227.20
56123;DHT22;42426;46.104;19.656;2023-03-29T03:16:15;51.40;2227.20
56123;DHT22;42426;46.104;19.656;2023-03-29T03:18:41;51.40;2227.20
56123;DHT22;42426;46.104;19.656;2023-03-29T03:21:07;51.30;2227.20
56123;DHT22;42426;46.104;19.656;2023-03-29T03:23:34;51.30;2227.20
56123;DHT22;42426;46.104;19.656;2023-03-29T03:26:04;51.20;2227.20
56123;DHT22;42426;46.104;19.656;2023-03-29T03:28:30;51.30;2227.20
56123;DHT22;42426;46.104;19.656;2023-03-29T03:30:56;26.50;2201.60
56123;DHT22;42426;46.104;19.656;2023-03-29T03:33:29;26.40;2201.60
56123;DHT22;42426;46.104;19.656;2023-03-29T03:35:55;26.50;2201.60
56123;DHT22;42426;46.104;19.656;2023-03-29T03:38:35;51.20;2227.20
56123;DHT22;42426;46.104;19.656;2023-03-29T03:41:01;51.20;2227.20
56123;DHT22;42426;46.104;19.656;2023-03-29T03:43:27;51.20;2227.20
56123;DHT22;42426;46.104;19.656;2023-03-29T03:45:54;26.50;2201.60
56123;DHT22;42426;46.104;19.656;2023-03-29T03:48:21;26.50;2201.60
56123;DHT22;42426;46.104;19.656;2023-03-29T03:51:05;26.50;2201.60
56123;DHT22;42426;46.104;19.656;2023-03-29T03:53:31;51.20;2227.20
56123;DHT22;42426;46.104;19.656;2023-03-29T03:55:58;51.20;2227.20
56123;DHT22;42426;46.104;19.656;2023-03-29T03:58:27;51.20;2227.20
56123;DHT22;42426;46.104;19.656;2023-03-29T04:00:53;26.50;2201.60
56123;DHT22;42426;46.104;19.656;2023-03-29T04:03:19;26.40;2201.60
56123;DHT22;42426;46.104;19.656;2023-03-29T04:05:46;26.40;2201.60
56123;DHT22;42426;46.104;19.656;2023-03-29T04:08:13;26.50;2201.60
56123;DHT22;42426;46.104;19.656;2023-03-29T04:10:40;26.50;2201.60
56123;DHT22;42426;46.104;19.656;2023-03-29T04:13:06;26.40;2201.60
56123;DHT22;42426;46.104;19.656;2023-03-29T04:15:34;26.40;2201.60
56123;DHT22;42426;46.104;19.656;2023-03-29T04:18:05;26.50;2201.60
56123;DHT22;42426;46.104;19.656;2023-03-29T04:20:32;51.20;2227.20
56123;DHT22;42426;46.104;19.656;2023-03-29T04:22:58;51.20;2227.20
56123;DHT22;42426;46.104;19.656;2023-03-29T04:25:24;51.30;2227.20
56123;DHT22;42426;46.104;19.656;2023-03-29T04:27:50;51.20;2227.20
56123;DHT22;42426;46.104;19.656;2023-03-29T04:30:16;26.50;2201.60
56123;DHT22;42426;46.104;19.656;2023-03-29T04:32:43;26.50;2201.60
56123;DHT22;42426;46.104;19.656;2023-03-29T04:35:08;26.40;2201.60
56123;DHT22;42426;46.104;19.656;2023-03-29T04:37:35;26.40;2201.60
56123;DHT22;42426;46.104;19.656;2023-03-29T04:40:05;26.40;2201.60
56123;DHT22;42426;46.104;19.656;2023-03-29T04:42:37;26.50;2201.60
56123;DHT22;42426;46.104;19.656;2023-03-29T04:45:04;51.20;2227.20
56123;DHT22;42426;46.104;19.656;2023-03-29T04:47:31;26.50;2201.60
56123;DHT22;42426;46.104;19.656;2023-03-29T04:49:57;26.50;2201.60
56123;DHT22;42426;46.104;19.656;2023-03-29T04:52:22;51.20;2227.20
56123;DHT22;42426;46.104;19.656;2023-03-29T04:54:48;51.30;2227.20
56123;DHT22;42426;46.104;19.656;2023-03-29T04:57:14;51.40;2227.20
56123;DHT22;42426;46.104;19.656;2023-03-29T04:59:39;51.30;2227.20
56123;DHT22;42426;46.104;19.656;2023-03-29T05:02:05;51.40;2227.20
56123;DHT22;42426;46.104;19.656;2023-03-29T05:04:31;51.30;2227.20
56123;DHT22;42426;46.104;19.656;2023-03-29T05:06:57;51.40;2227.20
56123;DHT22;42426;46.104;19.656;2023-03-29T05:09:23;51.20;2227.20
56123;DHT22;42426;46.104;19.656;2023-03-29T05:11:50;51.20;2227.20
56123;DHT22;42426;46.104;19.656;2023-03-29T05:14:19;51.20;2227.20
56123;DHT22;42426;46.104;19.656;2023-03-29T05:16:45;51.30;2227.20
56123;DHT22;42426;46.104;19.656;2023-03-29T05:19:10;51.30;2227.20
56123;DHT22;42426;46.104;19.656;2023-03-29T05:21:38;51.40;2227.20
56123;DHT22;42426;46.104;19.656;2023-03-29T05:24:04;51.40;2227.20
56123;DHT22;42426;46.104;19.656;2023-03-29T05:26:30;51.40;2227.20
56123;DHT22;42426;46.104;19.656;2023-03-29T05:28:56;51.40;2227.20
56123;DHT22;42426;46.104;19.656;2023-03-29T05:31:22;51.50;2227.20
56123;DHT22;42426;46.104;19.656;2023-03-29T05:33:49;51.40;2227.20
56123;DHT22;42426;46.104;19.656;2023-03-29T05:36:16;51.40;2227.20
56123;DHT22;42426;46.104;19.656;2023-03-29T05:38:43;51.30;2227.20
56123;DHT22;42426;46.104;19.656;2023-03-29T05:41:11;51.50;2227.20
56123;DHT22;42426;46.104;19.656;2023-03-29T05:43:37;51.50;2227.20
56123;DHT22;42426;46.104;19.656;2023-03-29T05:46:04;51.60;2227.20
56123;DHT22;42426;46.104;19.656;2023-03-29T05:48:31;51.70;2227.20
56123;DHT22;42426;46.104;19.656;2023-03-29T05:50:57;51.70;2227.20
56123;DHT22;42426;46.104;19.656;2023-03-29T05:53:26;51.80;2227.20
56123;DHT22;42426;46.104;19.656;2023-03-29T05:55:53;51.90;2201.60
56123;DHT22;42426;46.104;19.656;2023-03-29T05:58:20;52.00;2201.60
56123;DHT22;42426;46.104;19.656;2023-03-29T06:00:47;52.00;2201.60
56123;DHT22;42426;46.104;19.656;2023-03-29T06:03:16;52.10;2201.60
56123;DHT22;42426;46.104;19.656;2023-03-29T06:05:47;76.80;2176.00
56123;DHT22;42426;46.104;19.656;2023-03-29T06:08:19;76.90;2150.40
56123;DHT22;42426;46.104;19.656;2023-03-29T06:10:45;77.00;2124.80
56123;DHT22;42426;46.104;19.656;2023-03-29T06:13:10;77.10;2124.80
56123;DHT22;42426;46.104;19.656;2023-03-29T06:15:37;77.20;2073.60
56123;DHT22;42426;46.104;19.656;2023-03-29T06:18:03;77.30;2099.20
56123;DHT22;42426;46.104;19.656;2023-03-29T06:20:29;77.30;2073.60
56123;DHT22;42426;46.104;19.656;2023-03-29T06:22:54;77.40;2048.00
56123;DHT22;42426;46.104;19.656;2023-03-29T06:25:21;77.50;2022.40
56123;DHT22;42426;46.104;19.656;2023-03-29T06:27:47;77.50;2022.40
56123;DHT22;42426;46.104;19.656;2023-03-29T06:30:13;77.60;2022.40
56123;DHT22;42426;46.104;19.656;2023-03-29T06:32:43;77.60;2022.40
56123;DHT22;42426;46.104;19.656;2023-03-29T06:35:10;77.70;1971.20
56123;DHT22;42426;46.104;19.656;2023-03-29T06:37:37;77.70;1971.20
56123;DHT22;42426;46.104;19.656;2023-03-29T06:40:14;77.70;1971.20
56123;DHT22;42426;46.104;19.656;2023-03-29T06:42:42;102.40;1920.00
56123;DHT22;42426;46.104;19.656;2023-03-29T06:45:09;102.50;1868.80
56123;DHT22;42426;46.104;19.656;2023-03-29T06:47:35;102.60;1843.20
56123;DHT22;42426;46.104;19.656;2023-03-29T06:50:00;102.60;1868.80
56123;DHT22;42426;46.104;19.656;2023-03-29T06:52:26;102.70;1817.60
56123;DHT22;42426;46.104;19.656;2023-03-29T06:54:52;102.70;1792.00
56123;DHT22;42426;46.104;19.656;2023-03-29T06:57:18;102.80;1843.20
56123;DHT22;42426;46.104;19.656;2023-03-29T06:59:44;102.90;1792.00
56123;DHT22;42426;46.104;19.656;2023-03-29T07:02:10;103.00;1817.60
56123;DHT22;42426;46.104;19.656;2023-03-29T07:04:37;103.10;1792.00
56123;DHT22;42426;46.104;19.656;2023-03-29T07:07:03;103.00;1715.20
56123;DHT22;42426;46.104;19.656;2023-03-29T07:09:31;103.00;1817.60
56123;DHT22;42426;46.104;19.656;2023-03-29T07:12:00;103.10;1792.00
56123;DHT22;42426;46.104;19.656;2023-03-29T07:14:26;103.10;1792.00
56123;DHT22;42426;46.104;19.656;2023-03-29T07:16:57;103.20;1740.80
56123;DHT22;42426;46.104;19.656;2023-03-29T07:19:23;103.20;1766.40
56123;DHT22;42426;46.104;19.656;2023-03-29T07:21:52;103.20;1740.80
56123;DHT22;42426;46.104;19.656;2023-03-29T07:24:19;103.20;1766.40
56123;DHT22;42426;46.104;19.656;2023-03-29T07:26:46;128.00;1715.20
56123;DHT22;42426;46.104;19.656;2023-03-29T07:29:13;128.00;1664.00
56123;DHT22;42426;46.104;19.656;2023-03-29T07:31:39;128.00;1664.00
56123;DHT22;42426;46.104;19.656;2023-03-29T07:34:08;128.10;1638.40
56123;DHT22;42426;46.104;19.656;2023-03-29T07:36:38;128.20;1612.80
56123;DHT22;42426;46.104;19.656;2023-03-29T07:39:05;128.30;1612.80
56123;DHT22;42426;46.104;19.656;2023-03-29T07:41:31;128.30;1638.40
56123;DHT22;42426;46.104;19.656;2023-03-29T07:43:57;128.30;1638.40
56123;DHT22;42426;46.104;19.656;2023-03-29T07:46:29;128.30;1510.40
56123;DHT22;42426;46.104;19.656;2023-03-29T07:48:55;128.40;1536.00
56123;DHT22;42426;46.104;19.656;2023-03-29T07:51:22;128.40;1536.00
56123;DHT22;42426;46.104;19.656;2023-03-29T07:53:48;128.50;1510.40
56123;DHT22;42426;46.104;19.656;2023-03-29T07:56:14;128.60;1510.40
56123;DHT22;42426;46.104;19.656;2023-03-29T07:58:52;128.60;1510.40
56123;DHT22;42426;46.104;19.656;2023-03-29T08:01:22;128.60;1484.80
56123;DHT22;42426;46.104;19.656;2023-03-29T08:03:49;128.60;1510.40
56123;DHT22;42426;46.104;19.656;2023-03-29T08:06:14;128.70;1561.60
56123;DHT22;42426;46.104;19.656;2023-03-29T08:08:42;128.70;1484.80
56123;DHT22;42426;46.104;19.656;2023-03-29T08:11:07;128.80;1484.80
56123;DHT22;42426;46.104;19.656;2023-03-29T08:13:34;128.80;1484.80
56123;DHT22;42426;46.104;19.656;2023-03-29T08:16:00;128.90;1510.40
56123;DHT22;42426;46.104;19.656;2023-03-29T08:18:26;128.90;1484.80
56123;DHT22;42426;46.104;19.656;2023-03-29T08:20:52;128.90;1433.60
56123;DHT22;42426;46.104;19.656;2023-03-29T08:23:18;153.60;1408.00
56123;DHT22;42426;46.104;19.656;2023-03-29T08:25:45;153.70;1408.00
56123;DHT22;42426;46.104;19.656;2023-03-29T08:28:11;153.70;1382.40
56123;DHT22;42426;46.104;19.656;2023-03-29T08:30:39;153.80;1382.40
56123;DHT22;42426;46.104;19.656;2023-03-29T08:33:05;153.90;1356.80
56123;DHT22;42426;46.104;19.656;2023-03-29T08:38:53;153.90;1305.60
56123;DHT22;42426;46.104;19.656;2023-03-29T08:51:57;154.20;1331.20
56123;DHT22;42426;46.104;19.656;2023-03-29T08:54:27;154.20;1305.60
56123;DHT22;42426;46.104;19.656;2023-03-29T08:57:01;154.30;1254.40
56123;DHT22;42426;46.104;19.656;2023-03-29T08:59:30;154.40;1280.00
56123;DHT22;42426;46.104;19.656;2023-03-29T09:01:58;154.50;1280.00
56123;DHT22;42426;46.104;19.656;2023-03-29T09:04:32;179.30;1254.40
56123;DHT22;42426;46.104;19.656;2023-03-29T09:07:02;179.40;1254.40
56123;DHT22;42426;46.104;19.656;2023-03-29T09:09:32;179.50;1203.20
56123;DHT22;42426;46.104;19.656;2023-03-29T09:14:47;179.60;998.40
56123;DHT22;42426;46.104;19.656;2023-03-29T09:20:20;179.60;1024.00
56123;DHT22;42426;46.104;19.656;2023-03-29T09:28:09;179.90;998.40
56123;DHT22;42426;46.104;19.656;2023-03-29T09:33:21;180.00;1024.00
56123;DHT22;42426;46.104;19.656;2023-03-29T09:35:59;180.00;1126.40
56123;DHT22;42426;46.104;19.656;2023-03-29T09:38:29;180.00;1049.60
56123;DHT22;42426;46.104;19.656;2023-03-29T09:41:17;180.10;1075.20
56123;DHT22;42426;46.104;19.656;2023-03-29T09:43:46;204.80;1024.00
56123;DHT22;42426;46.104;19.656;2023-03-29T09:46:30;204.80;1075.20
56123;DHT22;42426;46.104;19.656;2023-03-29T09:48:58;204.80;1024.00
56123;DHT22;42426;46.104;19.656;2023-03-29T09:51:26;204.80;1100.80
56123;DHT22;42426;46.104;19.656;2023-03-29T09:53:55;204.90;1100.80
56123;DHT22;42426;46.104;19.656;2023-03-29T09:56:23;204.90;1126.40
56123;DHT22;42426;46.104;19.656;2023-03-29T09:58:49;205.00;1049.60
56123;DHT22;42426;46.104;19.656;2023-03-29T10:01:15;205.10;1126.40
56123;DHT22;42426;46.104;19.656;2023-03-29T10:03:47;205.10;1126.40
56123;DHT22;42426;46.104;19.656;2023-03-29T10:06:15;205.20;1126.40
56123;DHT22;42426;46.104;19.656;2023-03-29T10:08:46;205.30;1152.00
56123;DHT22;42426;46.104;19.656;2023-03-29T10:14:02;205.30;1126.40
56123;DHT22;42426;46.104;19.656;2023-03-29T10:16:32;205.40;1152.00
56123;DHT22;42426;46.104;19.656;2023-03-29T10:19:18;205.40;1152.00
56123;DHT22;42426;46.104;19.656;2023-03-29T10:21:47;205.40;1152.00
56123;DHT22;42426;46.104;19.656;2023-03-29T10:24:20;205.40;1126.40
56123;DHT22;42426;46.104;19.656;2023-03-29T10:26:47;205.50;1152.00
56123;DHT22;42426;46.104;19.656;2023-03-29T10:29:14;205.50;1177.60
56123;DHT22;42426;46.104;19.656;2023-03-29T10:31:43;205.60;1177.60
56123;DHT22;42426;46.104;19.656;2023-03-29T10:37:39;205.60;1152.00
56123;DHT22;42426;46.104;19.656;2023-03-29T10:43:53;230.40;1177.60
56123;DHT22;42426;46.104;19.656;2023-03-29T10:50:04;230.50;1203.20
56123;DHT22;42426;46.104;19.656;2023-03-29T10:52:32;230.60;1203.20
56123;DHT22;42426;46.104;19.656;2023-03-29T10:54:57;230.70;1203.20
56123;DHT22;42426;46.104;19.656;2023-03-29T10:57:39;230.60;1203.20
56123;DHT22;42426;46.104;19.656;2023-03-29T11:06:26;231.00;1203.20
56123;DHT22;42426;46.104;19.656;2023-03-29T11:14:16;230.90;1228.80
56123;DHT22;42426;46.104;19.656;2023-03-29T11:22:08;256.00;1177.60
56123;DHT22;42426;46.104;19.656;2023-03-29T11:27:34;231.20;1254.40
56123;DHT22;42426;46.104;19.656;2023-03-29T11:30:23;231.30;1228.80
56123;DHT22;42426;46.104;19.656;2023-03-29T11:33:02;256.00;1203.20
56123;DHT22;42426;46.104;19.656;2023-03-29T11:35:55;256.10;1203.20
56123;DHT22;42426;46.104;19.656;2023-03-29T11:43:47;256.30;1203.20
56123;DHT22;42426;46.104;19.656;2023-03-29T11:46:38;256.40;1203.20
56123;DHT22;42426;46.104;19.656;2023-03-29T11:49:20;256.50;1228.80
56123;DHT22;42426;46.104;19.656;2023-03-29T11:52:00;256.60;1177.60
56123;DHT22;42426;46.104;19.656;2023-03-29T11:57:28;256.70;1177.60
56123;DHT22;42426;46.104;19.656;2023-03-29T12:00:00;256.90;1177.60
56123;DHT22;42426;46.104;19.656;2023-03-29T12:02:46;256.90;1177.60
56123;DHT22;42426;46.104;19.656;2023-03-29T12:05:29;256.90;1152.00
56123;DHT22;42426;46.104;19.656;2023-03-29T12:08:06;256.70;1152.00
56123;DHT22;42426;46.104;19.656;2023-03-29T12:10:44;256.80;1152.00
56123;DHT22;42426;46.104;19.656;2023-03-29T12:15:44;256.80;1152.00
56123;DHT22;42426;46.104;19.656;2023-03-29T12:20:53;256.90;1203.20
56123;DHT22;42426;46.104;19.656;2023-03-29T12:23:20;281.60;1203.20
56123;DHT22;42426;46.104;19.656;2023-03-29T12:25:59;256.90;1177.60
56123;DHT22;42426;46.104;19.656;2023-03-29T12:39:00;281.60;1203.20
56123;DHT22;42426;46.104;19.656;2023-03-29T12:41:27;281.70;1228.80
56123;DHT22;42426;46.104;19.656;2023-03-29T12:43:53;281.70;1203.20
56123;DHT22;42426;46.104;19.656;2023-03-29T12:46:26;281.70;1254.40
56123;DHT22;42426;46.104;19.656;2023-03-29T12:48:59;281.70;1203.20
56123;DHT22;42426;46.104;19.656;2023-03-29T12:51:35;281.60;1254.40
56123;DHT22;42426;46.104;19.656;2023-03-29T12:54:21;281.70;1203.20
56123;DHT22;42426;46.104;19.656;2023-03-29T12:57:19;281.60;1203.20
56123;DHT22;42426;46.104;19.656;2023-03-29T12:59:47;281.60;1228.80
56123;DHT22;42426;46.104;19.656;2023-03-29T13:09:52;256.90;1203.20
56123;DHT22;42426;46.104;19.656;2023-03-29T13:12:26;256.80;1203.20
56123;DHT22;42426;46.104;19.656;2023-03-29T13:14:55;256.80;1203.20
56123;DHT22;42426;46.104;19.656;2023-03-29T13:31:27;256.90;1203.20
56123;DHT22;42426;46.104;19.656;2023-03-29T13:34:14;256.80;1203.20
56123;DHT22;42426;46.104;19.656;2023-03-29T13:36:54;256.80;1228.80
56123;DHT22;42426;46.104;19.656;2023-03-29T13:39:30;256.80;1228.80
56123;DHT22;42426;46.104;19.656;2023-03-29T13:42:16;256.80;1254.40
56123;DHT22;42426;46.104;19.656;2023-03-29T13:44:46;256.90;1254.40
56123;DHT22;42426;46.104;19.656;2023-03-29T13:49:59;281.90;1280.00
56123;DHT22;42426;46.104;19.656;2023-03-29T13:52:49;282.10;1280.00
56123;DHT22;42426;46.104;19.656;2023-03-29T13:55:18;282.10;1305.60
56123;DHT22;42426;46.104;19.656;2023-03-29T13:58:09;282.20;1280.00
56123;DHT22;42426;46.104;19.656;2023-03-29T14:00:45;282.30;1280.00
56123;DHT22;42426;46.104;19.656;2023-03-29T14:03:16;282.50;1254.40
56123;DHT22;42426;46.104;19.656;2023-03-29T14:05:47;307.20;1280.00
56123;DHT22;42426;46.104;19.656;2023-03-29T14:10:53;307.60;1228.80
56123;DHT22;42426;46.104;19.656;2023-03-29T14:13:21;307.40;1228.80
56123;DHT22;42426;46.104;19.656;2023-03-29T14:15:51;307.40;1228.80
56123;DHT22;42426;46.104;19.656;2023-03-29T14:18:21;307.30;1254.40
56123;DHT22;42426;46.104;19.656;2023-03-29T14:20:50;307.40;1228.80
56123;DHT22;42426;46.104;19.656;2023-03-29T14:23:22;307.50;1228.80
56123;DHT22;42426;46.104;19.656;2023-03-29T14:25:49;307.60;1254.40
56123;DHT22;42426;46.104;19.656;2023-03-29T14:28:27;307.60;1228.80
56123;DHT22;42426;46.104;19.656;2023-03-29T14:30:54;307.90;1254.40
56123;DHT22;42426;46.104;19.656;2023-03-29T14:33:28;307.90;1203.20
56123;DHT22;42426;46.104;19.656;2023-03-29T14:35:56;308.00;1203.20
56123;DHT22;42426;46.104;19.656;2023-03-29T14:38:23;307.90;1203.20
56123;DHT22;42426;46.104;19.656;2023-03-29T14:40:50;308.00;1177.60
56123;DHT22;42426;46.104;19.656;2023-03-29T14:43:20;307.90;1126.40
56123;DHT22;42426;46.104;19.656;2023-03-29T14:45:52;307.80;1152.00
56123;DHT22;42426;46.104;19.656;2023-03-29T14:48:18;307.70;1126.40
56123;DHT22;42426;46.104;19.656;2023-03-29T14:50:45;307.60;1126.40
56123;DHT22;42426;46.104;19.656;2023-03-29T14:53:21;307.50;1126.40
56123;DHT22;42426;46.104;19.656;2023-03-29T14:55:49;307.40;1152.00
56123;DHT22;42426;46.104;19.656;2023-03-29T14:58:21;307.50;1152.00
56123;DHT22;42426;46.104;19.656;2023-03-29T15:00:49;307.50;1177.60
56123;DHT22;42426;46.104;19.656;2023-03-29T15:03:15;307.50;1177.60
56123;DHT22;42426;46.104;19.656;2023-03-29T15:05:46;307.50;1152.00
56123;DHT22;42426;46.104;19.656;2023-03-29T15:08:48;307.50;1152.00
56123;DHT22;42426;46.104;19.656;2023-03-29T15:13:42;307.40;1177.60
56123;DHT22;42426;46.104;19.656;2023-03-29T15:16:12;307.40;1177.60
56123;DHT22;42426;46.104;19.656;2023-03-29T15:18:39;307.40;1203.20
56123;DHT22;42426;46.104;19.656;2023-03-29T15:21:08;307.40;1203.20
56123;DHT22;42426;46.104;19.656;2023-03-29T15:23:47;307.30;1203.20
56123;DHT22;42426;46.104;19.656;2023-03-29T15:26:20;307.20;1203.20
56123;DHT22;42426;46.104;19.656;2023-03-29T15:28:47;307.20;1228.80
56123;DHT22;42426;46.104;19.656;2023-03-29T15:31:17;282.50;1228.80
56123;DHT22;42426;46.104;19.656;2023-03-29T15:33:44;282.50;1228.80
56123;DHT22;42426;46.104;19.656;2023-03-29T15:36:13;282.40;1203.20
56123;DHT22;42426;46.104;19.656;2023-03-29T15:38:40;282.30;1203.20
56123;DHT22;42426;46.104;19.656;2023-03-29T15:41:09;282.30;1203.20
56123;DHT22;42426;46.104;19.656;2023-03-29T15:43:36;282.20;1203.20
56123;DHT22;42426;46.104;19.656;2023-03-29T15:46:02;282.10;1228.80
56123;DHT22;42426;46.104;19.656;2023-03-29T15:48:28;282.10;1228.80
56123;DHT22;42426;46.104;19.656;2023-03-29T15:51:02;282.10;1228.80
56123;DHT22;42426;46.104;19.656;2023-03-29T15:53:28;282.00;1254.40
56123;DHT22;42426;46.104;19.656;2023-03-29T15:55:54;282.00;1254.40
56123;DHT22;42426;46.104;19.656;2023-03-29T15:58:25;281.90;1254.40
56123;DHT22;42426;46.104;19.656;2023-03-29T16:00:57;281.90;1254.40
56123;DHT22;42426;46.104;19.656;2023-03-29T16:03:24;281.80;1280.00
56123;DHT22;42426;46.104;19.656;2023-03-29T16:05:52;281.70;1305.60
56123;DHT22;42426;46.104;19.656;2023-03-29T16:08:21;281.70;1280.00
56123;DHT22;42426;46.104;19.656;2023-03-29T16:10:47;281.70;1305.60
56123;DHT22;42426;46.104;19.656;2023-03-29T16:13:14;281.60;1305.60
56123;DHT22;42426;46.104;19.656;2023-03-29T16:15:41;281.60;1305.60
56123;DHT22;42426;46.104;19.656;2023-03-29T16:18:07;256.90;1280.00
56123;DHT22;42426;46.104;19.656;2023-03-29T16:20:33;256.90;1280.00
56123;DHT22;42426;46.104;19.656;2023-03-29T16:22:59;256.90;1280.00
56123;DHT22;42426;46.104;19.656;2023-03-29T16:25:26;256.90;1280.00
56123;DHT22;42426;46.104;19.656;2023-03-29T16:27:53;256.80;1254.40
56123;DHT22;42426;46.104;19.656;2023-03-29T16:30:19;256.80;1280.00
56123;DHT22;42426;46.104;19.656;2023-03-29T16:32:45;256.80;1280.00
56123;DHT22;42426;46.104;19.656;2023-03-29T16:35:38;256.70;1280.00
56123;DHT22;42426;46.104;19.656;2023-03-29T16:38:06;256.80;1280.00
56123;DHT22;42426;46.104;19.656;2023-03-29T16:40:34;256.70;1280.00
56123;DHT22;42426;46.104;19.656;2023-03-29T16:43:00;256.50;1305.60
56123;DHT22;42426;46.104;19.656;2023-03-29T16:45:26;256.70;1331.20
56123;DHT22;42426;46.104;19.656;2023-03-29T16:47:52;256.70;1331.20
56123;DHT22;42426;46.104;19.656;2023-03-29T16:50:20;256.60;1331.20
56123;DHT22;42426;46.104;19.656;2023-03-29T16:52:46;256.60;1382.40
56123;DHT22;42426;46.104;19.656;2023-03-29T16:55:15;256.50;1382.40
56123;DHT22;42426;46.104;19.656;2023-03-29T16:57:44;256.50;1356.80
56123;DHT22;42426;46.104;19.656;2023-03-29T17:00:11;256.50;1382.40
56123;DHT22;42426;46.104;19.656;2023-03-29T17:02:43;256.50;1408.00
56123;DHT22;42426;46.104;19.656;2023-03-29T17:05:10;256.50;1408.00
56123;DHT22;42426;46.104;19.656;2023-03-29T17:07:37;256.50;1408.00
56123;DHT22;42426;46.104;19.656;2023-03-29T17:10:05;256.50;1433.60
56123;DHT22;42426;46.104;19.656;2023-03-29T17:12:31;256.50;1433.60